Airfield :
LOGIN :

Register | Disclaimer

   EN    FR    IT 

 










Legend :    VFR   Marginal VFR   IFR   Intensive IFR   Very Intensive IFR
Visi :
Ceiling :
>= 8 km
>= 3000ft
5 to 8 km
1000 to 3000 ft
1500m to 5 km
500 to 1000 ft
800 to 1500m
200 to 500 ft
< 800m
< 200 ft
Symbols :   Thunderstorms  Fog  Heavy snow  Heavy precipitations  Wind > 20 kt
SIGMETs :     Misc.  Thunderstorms  Icing  Turbulence  Mountain Waves  Volcanic Ashes






- Airport Elevation : 120 ft
- IATA code : MME


EGNV - Durham Tees valley

CURRENT METAR :
  • 200820Z 16006KT 9999 FEW025 11/08 Q1016

EXPIRED METARs :
  • 200750Z 16004KT 130V200 9999 FEW025 11/07 Q1016
  • 200650Z 28002KT 9999 FEW025 10/07 Q1017
  • 200620Z 20004KT 170V240 9999 FEW025 10/07 Q1017
  • 200550Z VRB03KT 9999 FEW025 09/07 Q1017
  • 200520Z 21005KT 9999 FEW025 09/06 Q1017

TAF TAF EGNV
Valid from the 20 at 06:00 until the 20 at 15:00 UTC


200557Z 2006/2015 20005KT 9999 FEW025
TEMPO 2012/2015 6000 SHRA
PROB30
TEMPO 2012/2015 21015G25KT 4000 +SHRA
ATIS : +44 9012 018 111



MET'MAP, your aeronautical weather chart ! - Copyright ORBIFLY December 2007 - Disclaimer

ORBIFLY MET'MAP TEAM :

Programming & Development : Alexandra Zaïnal
Original concept : Baudouin d'Aumeries
Technical & hardware support : Manuel Goepfert
Assistance : Marc-Olivier Méhu

Contact : metmap@orbifly.com




SOURCES & CREDITS :

   NOAA